Embsay, United Kingdom
Current Conditions -  °F | °C
As of 10:20 AM on Wednesday 26 Nov 2014 (Local Time) from EGNM Reporting Station
Moderate Fog Moderate Fog  
Wind Chill: 39°   Ceiling: 200
Heat Index: 43°   Visibility: 0.5mi
Dew Point: 43°   Wind: 7mph
Humidity: 100%   Direction: 70°ENE
Pressure: 29.94"   Gusts: NA
Location:  53.98°N, 1.99°W
Report Text: EGNM 261020Z 07006KT 040V100 0800 R32/1100 FG SCT001 BKN002 06/06 Q1014
Loading
Personal Weather Stations






























Interactive Weather Map New forecast layout! Learn more

10-Day Weather Forecast

Advertisements
Track Severe Weather on mobile